White Lake, Michigan
Current Conditions -  °F | °C
As of 10:12 PM on Monday 20 Oct 2014 (Local Time) from KPTK Reporting Station
Overcast Overcast  
Wind Chill: 50°   Ceiling: 3400
Heat Index: 50°   Visibility: 10mi
Dew Point: 47°   Wind: 10mph
Humidity: 89%   Direction: 330°NNW
Pressure: 29.86"   Gusts: NA
Location:  42.69°N, 83.55°W
Report Text: KPTK 210212Z 33009KT 10SM FEW012 BKN034 OVC060 10/08 A2986 RMK AO2 RAE12 P0000 T01000083
Loading
Personal Weather Stations






























Interactive Weather Map
Tropical Storm Tracking
New forecast layout! Learn more

10-Day Weather Forecast

Advertisements
Track Severe Weather on mobile